createdAt,value
2022-07-29T00:01:05.255Z,2.948
2022-07-29T00:03:06.248Z,3.51
2022-07-29T00:05:07.402Z,3.088
2022-07-29T00:07:08.693Z,2.386
2022-07-29T00:09:10.480Z,2.386
2022-07-29T00:11:11.398Z,0.421
2022-07-29T00:13:12.505Z,4.633
2022-07-29T00:15:13.439Z,2.527
2022-07-29T00:17:15.302Z,3.51
2022-07-29T00:19:16.988Z,1.263
2022-07-29T00:21:17.876Z,0.561
2022-07-29T00:23:19.453Z,0
2022-07-29T00:25:21.301Z,0
2022-07-29T00:27:22.581Z,0
2022-07-29T00:29:33.857Z,1.825
2022-07-29T00:31:25.898Z,0
2022-07-29T00:33:27.518Z,0
2022-07-29T00:35:28.917Z,0
2022-07-29T00:37:29.986Z,0
2022-07-29T00:39:31.367Z,0
2022-07-29T00:41:32.483Z,0
2022-07-29T00:43:33.610Z,0
2022-07-29T00:45:35.094Z,0
2022-07-29T00:47:36.583Z,0
2022-07-29T00:49:38.310Z,0
2022-07-29T00:51:39.940Z,0
2022-07-29T00:53:40.930Z,0
2022-07-29T00:57:42.933Z,0
2022-07-29T00:59:44.609Z,0
2022-07-29T01:01:46.222Z,0.702
2022-07-29T01:05:51.150Z,0.842
2022-07-29T01:07:50.927Z,0
2022-07-29T01:09:52.223Z,0
2022-07-29T01:11:53.232Z,0
2022-07-29T01:13:54.680Z,1.263
2022-07-29T01:15:56.118Z,0
2022-07-29T01:17:57.391Z,0
2022-07-29T01:19:58.588Z,0
2022-07-29T01:22:00.357Z,0.28
2022-07-29T01:24:02.026Z,1.123
2022-07-29T01:26:03.578Z,0.842
2022-07-29T01:30:06.556Z,0.561
2022-07-29T01:32:08.418Z,0
2022-07-29T01:34:09.317Z,0.28
2022-07-29T01:36:10.766Z,0
2022-07-29T01:38:11.825Z,0
2022-07-29T01:40:13.653Z,0
2022-07-29T01:42:15.474Z,0
2022-07-29T01:44:17.671Z,0
2022-07-29T01:46:18.782Z,0
2022-07-29T01:48:20.079Z,0
2022-07-29T01:50:21.416Z,0
2022-07-29T01:52:22.423Z,0
2022-07-29T01:54:24.287Z,0
2022-07-29T01:56:25.439Z,0
2022-07-29T01:58:27.120Z,0
2022-07-29T02:00:28.111Z,0
2022-07-29T02:02:29.481Z,0
2022-07-29T02:04:31.130Z,0
2022-07-29T02:06:32.452Z,0
2022-07-29T02:08:33.780Z,0
2022-07-29T02:10:35.336Z,0
2022-07-29T02:12:36.723Z,0
2022-07-29T02:14:37.597Z,0
2022-07-29T02:18:40.057Z,0
2022-07-29T02:20:41.303Z,0
2022-07-29T02:22:43.145Z,0
2022-07-29T02:24:44.753Z,0
2022-07-29T02:26:46.392Z,0
2022-07-29T02:28:48.100Z,0
2022-07-29T02:30:49.063Z,1.544
2022-07-29T02:32:50.887Z,0
2022-07-29T02:34:52.001Z,0
2022-07-29T02:38:55.154Z,0
2022-07-29T02:40:56.238Z,0
2022-07-29T02:42:57.375Z,0
2022-07-29T02:44:58.812Z,0
2022-07-29T02:46:59.860Z,0
2022-07-29T02:49:01.373Z,0
2022-07-29T02:51:03.015Z,0
2022-07-29T02:53:04.482Z,0
2022-07-29T02:55:05.764Z,0
2022-07-29T02:57:07.400Z,0
2022-07-29T02:59:08.402Z,0
2022-07-29T03:01:09.377Z,0
2022-07-29T03:03:10.510Z,0
2022-07-29T03:05:11.654Z,0
2022-07-29T03:07:12.602Z,0
2022-07-29T03:09:14.101Z,0
2022-07-29T03:11:15.560Z,0
2022-07-29T03:13:16.565Z,0
2022-07-29T03:15:18.311Z,0
2022-07-29T03:17:19.901Z,0
2022-07-29T03:21:22.950Z,0
2022-07-29T03:23:24.296Z,0
2022-07-29T03:25:26.197Z,0
2022-07-29T03:27:27.078Z,0
2022-07-29T03:29:33.384Z,0
2022-07-29T03:31:30.356Z,0
2022-07-29T03:33:31.434Z,0
2022-07-29T03:35:33.226Z,0
2022-07-29T03:37:34.308Z,0
2022-07-29T03:39:35.989Z,0
2022-07-29T03:41:37.147Z,0
2022-07-29T03:43:38.243Z,0
2022-07-29T03:45:39.875Z,0
2022-07-29T03:47:45.204Z,0
2022-07-29T03:49:43.345Z,0
2022-07-29T03:51:44.253Z,0
2022-07-29T03:53:45.919Z,0
2022-07-29T03:55:47.488Z,0
2022-07-29T03:57:49.028Z,0
2022-07-29T03:59:50.333Z,0
2022-07-29T04:01:51.847Z,0
2022-07-29T04:03:53.098Z,0
2022-07-29T04:05:54.707Z,0
2022-07-29T04:07:56.582Z,0
2022-07-29T04:09:58.471Z,0
2022-07-29T04:12:02.798Z,0
2022-07-29T04:14:01.454Z,0
2022-07-29T04:16:02.742Z,0
2022-07-29T04:18:03.868Z,0
2022-07-29T04:20:04.902Z,0
2022-07-29T04:22:06.345Z,0
2022-07-29T04:24:07.814Z,0
2022-07-29T04:26:09.436Z,0
2022-07-29T04:28:11.267Z,0
2022-07-29T04:30:12.542Z,0
2022-07-29T04:32:14.004Z,0
2022-07-29T04:34:15.274Z,0
2022-07-29T04:36:18.879Z,0
2022-07-29T04:38:17.407Z,0
2022-07-29T04:40:19.311Z,0
2022-07-29T04:42:21.518Z,0
2022-07-29T04:44:22.427Z,0
2022-07-29T04:46:23.755Z,0
2022-07-29T04:48:28.616Z,0
2022-07-29T04:50:26.604Z,0
2022-07-29T04:52:27.855Z,0
2022-07-29T04:54:29.276Z,0
2022-07-29T04:56:30.382Z,0
2022-07-29T05:00:33.681Z,0
2022-07-29T05:02:34.237Z,0
2022-07-29T05:04:35.567Z,0
2022-07-29T05:06:37.100Z,0
2022-07-29T05:08:38.145Z,0
2022-07-29T05:09:21.908Z,0
2022-07-29T05:11:25.059Z,0
2022-07-29T05:13:24.193Z,0
2022-07-29T05:15:25.257Z,0
2022-07-29T05:17:26.230Z,0
2022-07-29T05:19:27.193Z,0
2022-07-29T05:21:28.566Z,0
2022-07-29T05:23:29.986Z,0
2022-07-29T05:25:40.881Z,0
2022-07-29T05:27:32.891Z,0
2022-07-29T05:29:43.597Z,0
2022-07-29T05:31:35.945Z,0
2022-07-29T05:33:37.229Z,0
2022-07-29T05:35:37.907Z,0
2022-07-29T05:37:39.297Z,0
2022-07-29T05:39:47.509Z,0
2022-07-29T05:43:42.896Z,1.544
2022-07-29T05:45:49.448Z,0.702
2022-07-29T05:47:45.490Z,0.561
2022-07-29T05:49:47.058Z,0
2022-07-29T05:53:50.050Z,1.123
2022-07-29T05:55:51.440Z,1.263
2022-07-29T05:57:52.923Z,0.421
2022-07-29T05:59:53.869Z,0
2022-07-29T06:01:55.682Z,0
2022-07-29T06:03:56.694Z,0
2022-07-29T06:05:57.626Z,0
2022-07-29T06:07:58.736Z,0
2022-07-29T06:10:00.109Z,1.123
2022-07-29T06:12:01.467Z,0
2022-07-29T06:14:03.082Z,0.14
2022-07-29T06:16:04.074Z,0
2022-07-29T06:18:05.382Z,0.561
2022-07-29T06:20:07.527Z,0
2022-07-29T06:22:07.741Z,0
2022-07-29T06:26:10.791Z,0.14
2022-07-29T06:28:12.462Z,1.684
2022-07-29T06:30:13.905Z,0.28
2022-07-29T06:32:15.383Z,0.561
2022-07-29T06:36:19.055Z,0.982
2022-07-29T06:38:31.875Z,1.123
2022-07-29T06:40:21.360Z,1.544
2022-07-29T06:42:22.783Z,1.404
2022-07-29T06:44:23.673Z,0
2022-07-29T06:46:25.351Z,2.106
2022-07-29T06:48:26.355Z,0
2022-07-29T06:50:27.546Z,1.684
2022-07-29T06:52:28.995Z,1.825
2022-07-29T06:54:30.108Z,0.14
2022-07-29T06:58:32.903Z,0.14
2022-07-29T07:00:34.243Z,0.14
2022-07-29T07:02:35.644Z,0
2022-07-29T07:04:37.453Z,0.842
2022-07-29T07:06:38.988Z,0.14
2022-07-29T07:08:40.086Z,0
2022-07-29T07:10:41.099Z,1.123
2022-07-29T07:12:41.880Z,2.527
2022-07-29T07:14:43.562Z,0.982
2022-07-29T07:16:45.087Z,0.14
2022-07-29T07:18:46.478Z,1.404
2022-07-29T07:20:47.994Z,0.982
2022-07-29T07:22:49.343Z,0
2022-07-29T07:24:50.198Z,0.702
2022-07-29T07:26:51.878Z,0.14
2022-07-29T07:28:53.443Z,1.544
2022-07-29T07:30:55.185Z,3.229
2022-07-29T07:32:56.486Z,0.702
2022-07-29T07:34:57.829Z,0
2022-07-29T07:36:59.307Z,1.965
2022-07-29T07:39:00.929Z,0.561
2022-07-29T07:41:03.509Z,0.561
2022-07-29T07:43:04.396Z,0
2022-07-29T07:45:12.857Z,0.982
2022-07-29T07:47:08.747Z,0
2022-07-29T07:49:08.487Z,0.842
2022-07-29T07:51:10.120Z,1.123
2022-07-29T07:53:11.154Z,0.702
2022-07-29T07:55:12.747Z,0.14
2022-07-29T07:57:14.267Z,0
2022-07-29T07:59:15.918Z,0
2022-07-29T08:01:17.512Z,0
2022-07-29T08:03:19.291Z,0
2022-07-29T08:05:20.457Z,0
2022-07-29T08:07:21.814Z,0
2022-07-29T08:09:28.555Z,0
2022-07-29T08:11:24.595Z,0
2022-07-29T08:13:26.243Z,0
2022-07-29T08:17:29.158Z,1.263
2022-07-29T08:19:30.876Z,2.106
2022-07-29T08:21:32.266Z,1.404
2022-07-29T08:23:45.874Z,2.246
2022-07-29T08:25:34.690Z,1.684
2022-07-29T08:27:43.246Z,0.842
2022-07-29T08:29:37.111Z,0.28
2022-07-29T08:31:38.477Z,2.246
2022-07-29T08:33:39.872Z,0.842
2022-07-29T08:35:40.809Z,1.684
2022-07-29T08:37:42.815Z,2.106
2022-07-29T08:39:44.346Z,3.229
2022-07-29T08:41:57.075Z,2.527
2022-07-29T08:43:46.256Z,1.965
2022-07-29T08:45:47.560Z,0
2022-07-29T08:49:48.951Z,2.246
2022-07-29T08:51:50.335Z,2.527
2022-07-29T08:53:51.712Z,0
2022-07-29T08:55:52.852Z,2.246
2022-07-29T08:59:55.303Z,0
2022-07-29T09:01:56.311Z,1.684
2022-07-29T09:03:57.069Z,4.352
2022-07-29T09:05:58.686Z,1.825
2022-07-29T09:07:59.647Z,0.702
2022-07-29T09:10:01.314Z,0.421
2022-07-29T09:12:02.095Z,2.527
2022-07-29T09:14:03.015Z,0.702
2022-07-29T09:16:08.742Z,0.28
2022-07-29T09:18:05.275Z,1.404
2022-07-29T09:20:06.775Z,1.123
2022-07-29T09:22:08.123Z,0.28
2022-07-29T09:24:09.046Z,3.088
2022-07-29T09:26:10.173Z,1.825
2022-07-29T09:28:11.551Z,2.246
2022-07-29T09:30:12.509Z,2.667
2022-07-29T09:32:13.674Z,0.561
2022-07-29T09:34:14.608Z,1.123
2022-07-29T09:36:15.944Z,0
2022-07-29T09:38:17.290Z,3.369
2022-07-29T09:40:18.621Z,0.842
2022-07-29T09:42:19.574Z,1.263
2022-07-29T09:44:21.031Z,0
2022-07-29T09:48:24.260Z,3.931
2022-07-29T09:50:26.567Z,4.914
2022-07-29T09:52:27.727Z,0
2022-07-29T09:54:29.383Z,1.123
2022-07-29T09:58:31.561Z,4.633
2022-07-29T10:00:33.097Z,3.79
2022-07-29T10:02:34.541Z,2.106
2022-07-29T10:04:35.710Z,1.404
2022-07-29T10:06:36.522Z,0.14
2022-07-29T10:08:38.134Z,0.702
2022-07-29T10:10:39.550Z,1.544
2022-07-29T10:12:40.299Z,3.088
2022-07-29T10:14:41.696Z,2.246
2022-07-29T10:16:43.424Z,2.948
2022-07-29T10:18:44.919Z,2.667
2022-07-29T10:20:46.269Z,4.633
2022-07-29T10:22:53.643Z,0.28
2022-07-29T10:24:48.600Z,1.544
2022-07-29T10:26:49.861Z,0
2022-07-29T10:28:50.910Z,2.246
2022-07-29T10:30:52.543Z,3.931
2022-07-29T10:32:54.293Z,2.386
2022-07-29T10:34:55.681Z,5.194
2022-07-29T10:36:57.075Z,5.194
2022-07-29T10:40:59.118Z,3.79
2022-07-29T10:43:00.020Z,0
2022-07-29T10:45:01.377Z,1.123
2022-07-29T10:47:02.276Z,5.054
2022-07-29T10:49:03.202Z,1.684
2022-07-29T10:51:04.740Z,1.965
2022-07-29T10:53:08.800Z,0
2022-07-29T10:55:07.197Z,3.369
2022-07-29T10:57:07.954Z,2.106
2022-07-29T10:59:09.381Z,0.421
2022-07-29T11:01:10.255Z,2.527
2022-07-29T11:03:11.114Z,4.071
2022-07-29T11:05:12.649Z,3.931
2022-07-29T11:07:15.135Z,3.65
2022-07-29T11:09:14.686Z,2.948
2022-07-29T11:11:17.400Z,2.246
2022-07-29T11:13:17.364Z,1.965
2022-07-29T11:15:18.793Z,1.123
2022-07-29T11:17:19.887Z,2.106
2022-07-29T11:19:21.485Z,3.369
2022-07-29T11:21:23.302Z,1.123
2022-07-29T11:23:24.637Z,0.982
2022-07-29T11:25:42.328Z,0
2022-07-29T11:29:28.550Z,0.28
2022-07-29T11:31:29.758Z,1.404
2022-07-29T11:33:37.381Z,1.123
2022-07-29T11:35:37.820Z,0.561
2022-07-29T11:39:36.195Z,0.14
2022-07-29T11:41:35.419Z,3.79
2022-07-29T11:43:37.111Z,3.51
2022-07-29T11:45:42.230Z,1.965
2022-07-29T11:47:40.770Z,2.386
2022-07-29T11:51:46.407Z,1.684
2022-07-29T11:53:44.337Z,0
2022-07-29T11:56:28.839Z,0.842
2022-07-29T11:58:29.936Z,3.369
2022-07-29T12:00:31.013Z,1.263
2022-07-29T12:04:32.993Z,0.702
2022-07-29T12:06:34.224Z,2.246
2022-07-29T12:08:35.748Z,4.492
2022-07-29T12:10:37.363Z,0.982
2022-07-29T12:12:38.185Z,0
2022-07-29T12:14:39.384Z,3.51
2022-07-29T12:16:40.727Z,2.386
2022-07-29T12:18:42.420Z,1.123
2022-07-29T12:20:43.844Z,0.842
2022-07-29T12:22:45.100Z,0
2022-07-29T12:24:47.627Z,3.51
2022-07-29T12:26:49.285Z,1.965
2022-07-29T12:28:50.195Z,3.229
2022-07-29T12:30:51.818Z,2.106
2022-07-29T12:32:53.466Z,4.633
2022-07-29T12:34:54.516Z,4.492
2022-07-29T12:36:55.506Z,6.037
2022-07-29T12:38:56.761Z,5.335
2022-07-29T12:40:58.033Z,1.965
2022-07-29T12:42:59.013Z,1.684
2022-07-29T12:45:00.219Z,0.421
2022-07-29T12:47:01.470Z,0.14
2022-07-29T12:49:04.028Z,5.756
2022-07-29T12:51:04.838Z,1.825
2022-07-29T12:53:05.766Z,1.544
2022-07-29T12:55:07.257Z,6.598
2022-07-29T12:57:19.851Z,4.212
2022-07-29T12:59:09.569Z,2.948
2022-07-29T13:01:17.038Z,5.335
2022-07-29T13:03:12.071Z,2.667
2022-07-29T13:05:12.992Z,3.088
2022-07-29T13:07:14.609Z,2.246
2022-07-29T13:09:15.181Z,1.404
2022-07-29T13:11:16.462Z,2.667
2022-07-29T13:15:18.296Z,5.616
2022-07-29T13:17:19.406Z,4.914
2022-07-29T13:19:20.570Z,0.561
2022-07-29T13:21:21.460Z,6.037
2022-07-29T13:23:22.694Z,8.564
2022-07-29T13:25:24.446Z,8.283
2022-07-29T13:27:25.403Z,7.3
2022-07-29T13:29:31.183Z,7.581
2022-07-29T13:31:28.780Z,3.088
2022-07-29T13:33:30.360Z,3.088
2022-07-29T13:35:32.170Z,0.421
2022-07-29T13:37:33.902Z,2.386
2022-07-29T13:39:35.006Z,3.65
2022-07-29T13:41:36.211Z,4.633
2022-07-29T13:43:37.932Z,1.123
2022-07-29T13:47:43.573Z,0.28
2022-07-29T13:49:41.943Z,4.352
2022-07-29T13:51:43.539Z,2.246
2022-07-29T13:53:44.715Z,3.088
2022-07-29T13:57:47.487Z,3.369
2022-07-29T13:59:53.496Z,1.965
2022-07-29T14:01:50.497Z,1.404
2022-07-29T14:03:51.945Z,1.684
2022-07-29T14:05:53.631Z,1.544
2022-07-29T14:07:55.331Z,2.246
2022-07-29T14:09:57.021Z,1.825
2022-07-29T14:11:58.647Z,1.404
2022-07-29T14:13:59.505Z,0.14
2022-07-29T14:16:01.260Z,0.702
2022-07-29T14:18:02.483Z,1.684
2022-07-29T14:20:03.476Z,1.263
2022-07-29T14:22:05.221Z,0.842
2022-07-29T14:24:09.339Z,2.527
2022-07-29T14:26:08.697Z,1.684
2022-07-29T14:28:08.769Z,1.263
2022-07-29T14:30:10.446Z,1.123
2022-07-29T14:32:11.863Z,0
2022-07-29T14:34:13.049Z,0
2022-07-29T14:36:14.858Z,0.842
2022-07-29T14:38:16.683Z,1.404
2022-07-29T14:40:17.897Z,2.106
2022-07-29T14:42:19.300Z,3.51
2022-07-29T14:44:20.717Z,3.51
2022-07-29T14:46:22.553Z,2.106
2022-07-29T14:48:23.725Z,2.527
2022-07-29T14:50:29.906Z,2.386
2022-07-29T14:52:27.043Z,3.65
2022-07-29T14:54:28.374Z,1.404
2022-07-29T14:56:36.811Z,0.28
2022-07-29T14:58:31.676Z,1.123
2022-07-29T15:00:33.378Z,0.28
2022-07-29T15:02:52.426Z,1.123
2022-07-29T15:04:36.085Z,0.842
2022-07-29T15:06:37.478Z,1.263
2022-07-29T15:08:38.628Z,0
2022-07-29T15:10:40.304Z,0
2022-07-29T15:12:41.320Z,2.808
2022-07-29T15:14:42.881Z,2.948
2022-07-29T15:16:46.774Z,2.527
2022-07-29T15:18:45.358Z,4.212
2022-07-29T15:20:46.717Z,2.948
2022-07-29T15:22:48.320Z,5.054
2022-07-29T15:24:49.489Z,4.071
2022-07-29T15:28:52.494Z,0
2022-07-29T15:30:53.820Z,0
2022-07-29T15:32:55.957Z,0
2022-07-29T15:34:56.459Z,0
2022-07-29T15:38:59.444Z,3.65
2022-07-29T15:41:00.885Z,2.386
2022-07-29T15:43:01.780Z,2.948
2022-07-29T15:45:03.049Z,1.684
2022-07-29T15:47:04.465Z,0.561
2022-07-29T15:51:07.750Z,2.106
2022-07-29T15:53:09.220Z,1.404
2022-07-29T15:55:10.105Z,1.825
2022-07-29T15:57:11.768Z,3.931
2022-07-29T16:01:14.321Z,0
2022-07-29T16:03:15.832Z,0
2022-07-29T16:05:16.856Z,1.123
2022-07-29T16:07:18.108Z,6.177
2022-07-29T16:09:19.158Z,8.002
2022-07-29T16:11:20.901Z,2.948
2022-07-29T16:13:22.685Z,0.982
2022-07-29T16:15:24.419Z,0
2022-07-29T16:17:25.828Z,0
2022-07-29T16:19:27.398Z,0.842
2022-07-29T16:21:28.292Z,1.684
2022-07-29T16:23:29.916Z,5.194
2022-07-29T16:25:58.428Z,2.106
2022-07-29T16:27:35.490Z,0.28
2022-07-29T16:29:33.890Z,1.684
2022-07-29T16:31:35.460Z,2.527
2022-07-29T16:33:54.448Z,1.123
2022-07-29T16:35:39.031Z,0
2022-07-29T16:37:39.019Z,0
2022-07-29T16:39:40.501Z,0.14
2022-07-29T16:41:41.492Z,0
2022-07-29T16:43:42.916Z,0
2022-07-29T16:45:45.709Z,2.667
2022-07-29T16:47:45.853Z,0.14
2022-07-29T16:49:46.994Z,0.14
2022-07-29T16:51:48.390Z,1.544
2022-07-29T16:53:49.832Z,1.123
2022-07-29T16:55:51.026Z,2.527
2022-07-29T16:57:52.047Z,3.65
2022-07-29T16:59:53.627Z,3.51
2022-07-29T17:01:54.800Z,2.527
2022-07-29T17:03:59.616Z,0.982
2022-07-29T17:05:56.678Z,1.123
2022-07-29T17:07:57.974Z,0
2022-07-29T17:10:03.381Z,0
2022-07-29T17:11:59.823Z,0.14
2022-07-29T17:14:01.055Z,0.14
2022-07-29T17:16:02.459Z,0
2022-07-29T17:20:05.235Z,0
2022-07-29T17:22:12.839Z,0
2022-07-29T17:24:08.262Z,0
2022-07-29T17:26:09.807Z,0
2022-07-29T17:28:10.791Z,0
2022-07-29T17:30:12.179Z,0
2022-07-29T17:32:13.819Z,0
2022-07-29T17:34:14.871Z,1.404
2022-07-29T17:36:16.241Z,0.982
2022-07-29T17:38:17.498Z,1.684
2022-07-29T17:42:20.524Z,0.842
2022-07-29T17:44:22.372Z,0.421
2022-07-29T17:46:23.499Z,0
2022-07-29T17:48:24.799Z,0
2022-07-29T17:50:26.181Z,0
2022-07-29T17:52:27.097Z,0
2022-07-29T17:54:28.859Z,0
2022-07-29T17:56:30.441Z,0
2022-07-29T17:58:32.126Z,0
2022-07-29T18:02:34.618Z,0
2022-07-29T18:04:35.977Z,0.28
2022-07-29T18:06:37.733Z,0.421
2022-07-29T18:08:38.960Z,0
2022-07-29T18:10:40.688Z,0
2022-07-29T18:12:42.171Z,0
2022-07-29T18:14:43.237Z,0
2022-07-29T18:16:45.005Z,0
2022-07-29T18:18:46.570Z,0
2022-07-29T18:20:48.187Z,0
2022-07-29T18:22:49.705Z,0
2022-07-29T18:24:51.069Z,0.14
2022-07-29T18:26:52.581Z,0.14
2022-07-29T18:30:55.687Z,0
2022-07-29T18:33:19.543Z,0
2022-07-29T18:34:58.724Z,0
2022-07-29T18:37:00.024Z,0
2022-07-29T18:39:01.338Z,0
2022-07-29T18:39:45.112Z,0
2022-07-29T18:41:50.061Z,0
2022-07-29T18:43:47.322Z,0
2022-07-29T18:45:48.888Z,0
2022-07-29T18:47:49.874Z,0
2022-07-29T18:49:51.427Z,0
2022-07-29T18:51:52.336Z,0
2022-07-29T18:53:54.007Z,0
2022-07-29T18:55:59.935Z,0
2022-07-29T18:57:57.282Z,0
2022-07-29T18:59:58.590Z,0
2022-07-29T19:01:59.840Z,1.123
2022-07-29T19:04:01.661Z,2.106
2022-07-29T19:06:02.881Z,1.544
2022-07-29T19:08:04.499Z,0
2022-07-29T19:10:05.792Z,0
2022-07-29T19:12:07.070Z,0
2022-07-29T19:14:08.675Z,0
2022-07-29T19:16:10.211Z,0
2022-07-29T19:18:11.845Z,0.702
2022-07-29T19:20:12.809Z,0
2022-07-29T19:22:14.609Z,0
2022-07-29T19:24:16.010Z,0
2022-07-29T19:28:18.557Z,0.14
2022-07-29T19:30:19.936Z,0
2022-07-29T19:32:22.612Z,0
2022-07-29T19:34:22.377Z,0.14
2022-07-29T19:38:25.677Z,0
2022-07-29T19:40:27.453Z,0
2022-07-29T19:42:28.911Z,0.702
2022-07-29T19:44:29.850Z,2.106
2022-07-29T19:46:31.194Z,0.28
2022-07-29T19:48:32.931Z,0
2022-07-29T19:50:34.237Z,0.28
2022-07-29T19:52:35.155Z,0.14
2022-07-29T19:54:36.142Z,0
2022-07-29T19:56:37.205Z,0
2022-07-29T19:58:38.187Z,0.702
2022-07-29T20:00:40.129Z,0
2022-07-29T20:02:41.010Z,0
2022-07-29T20:04:42.024Z,0
2022-07-29T20:06:43.330Z,0.14
2022-07-29T20:08:44.278Z,0
2022-07-29T20:10:45.628Z,1.544
2022-07-29T20:12:47.033Z,1.404
2022-07-29T20:14:48.497Z,2.808
2022-07-29T20:16:49.428Z,0
2022-07-29T20:20:51.458Z,0.842
2022-07-29T20:22:52.328Z,1.404
2022-07-29T20:24:53.648Z,0.14
2022-07-29T20:26:54.625Z,0
2022-07-29T20:28:56.132Z,4.071
2022-07-29T20:30:57.517Z,4.071
2022-07-29T20:32:58.733Z,0.982
2022-07-29T20:35:00.013Z,0
2022-07-29T20:37:09.599Z,0
2022-07-29T20:39:02.955Z,0.14
2022-07-29T20:41:04.003Z,0
2022-07-29T20:43:05.033Z,0
2022-07-29T20:45:08.643Z,1.544
2022-07-29T20:47:07.234Z,1.123
2022-07-29T20:49:08.175Z,0.28
2022-07-29T20:51:09.864Z,1.123
2022-07-29T20:53:10.738Z,0
2022-07-29T20:55:12.302Z,0
2022-07-29T20:57:13.746Z,0.14
2022-07-29T20:59:14.832Z,0
2022-07-29T21:01:16.218Z,1.404
2022-07-29T21:03:17.900Z,1.544
2022-07-29T21:05:19.417Z,2.246
2022-07-29T21:09:22.305Z,4.773
2022-07-29T21:11:42.898Z,2.667
2022-07-29T21:13:25.249Z,0
2022-07-29T21:15:26.541Z,1.684
2022-07-29T21:17:28.146Z,2.386
2022-07-29T21:19:29.179Z,0.28
2022-07-29T21:21:30.835Z,0.561
2022-07-29T21:23:31.899Z,0
2022-07-29T21:25:33.236Z,0
2022-07-29T21:27:35.008Z,0
2022-07-29T21:31:37.989Z,0.14
2022-07-29T21:33:39.185Z,0
2022-07-29T21:36:10.496Z,0.421
2022-07-29T21:37:41.397Z,0
2022-07-29T21:39:43.041Z,0
2022-07-29T21:41:44.090Z,0
2022-07-29T21:43:45.517Z,0
2022-07-29T21:45:46.941Z,1.123
2022-07-29T21:47:48.776Z,1.123
2022-07-29T21:49:50.056Z,1.263
2022-07-29T21:51:51.039Z,0.702
2022-07-29T21:53:53.203Z,0
2022-07-29T21:55:53.714Z,0
2022-07-29T21:57:54.855Z,0
2022-07-29T22:01:57.150Z,0
2022-07-29T22:03:58.486Z,0
2022-07-29T22:05:59.442Z,1.123
2022-07-29T22:08:01.330Z,0
2022-07-29T22:10:02.711Z,0
2022-07-29T22:12:04.188Z,0
2022-07-29T22:14:05.403Z,0.421
2022-07-29T22:16:06.350Z,0
2022-07-29T22:18:07.576Z,0.14
2022-07-29T22:20:09.146Z,0
2022-07-29T22:22:10.240Z,0
2022-07-29T22:24:12.093Z,0.14
2022-07-29T22:26:13.775Z,0
2022-07-29T22:28:15.392Z,0
2022-07-29T22:30:17.116Z,0
2022-07-29T22:32:18.539Z,0
2022-07-29T22:34:20.220Z,0
2022-07-29T22:36:21.243Z,0
2022-07-29T22:38:22.802Z,0
2022-07-29T22:40:23.944Z,0
2022-07-29T22:42:24.748Z,0
2022-07-29T22:44:25.888Z,0
2022-07-29T22:46:27.180Z,0.842
2022-07-29T22:48:28.767Z,0
2022-07-29T22:50:30.127Z,0
2022-07-29T22:52:31.765Z,0
2022-07-29T22:54:33.520Z,0
2022-07-29T22:56:34.957Z,0
2022-07-29T22:58:36.037Z,0
2022-07-29T23:00:37.018Z,0
2022-07-29T23:02:38.221Z,0
2022-07-29T23:04:39.820Z,0
2022-07-29T23:06:40.876Z,0
2022-07-29T23:08:42.678Z,0
2022-07-29T23:10:44.311Z,0
2022-07-29T23:12:45.576Z,0
2022-07-29T23:14:47.362Z,0
2022-07-29T23:16:48.547Z,0
2022-07-29T23:18:50.150Z,0
2022-07-29T23:20:51.540Z,0
2022-07-29T23:22:52.577Z,0
2022-07-29T23:24:54.321Z,0
2022-07-29T23:26:55.718Z,0
2022-07-29T23:28:57.415Z,0
2022-07-29T23:33:00.370Z,0
2022-07-29T23:35:01.281Z,0
2022-07-29T23:37:03.408Z,0
2022-07-29T23:39:04.052Z,0
2022-07-29T23:41:05.575Z,0
2022-07-29T23:43:08.447Z,0
2022-07-29T23:45:08.183Z,0
2022-07-29T23:47:09.528Z,0
2022-07-29T23:49:11.128Z,0
2022-07-29T23:51:12.317Z,0
2022-07-29T23:53:13.653Z,0
2022-07-29T23:55:35.991Z,0.702
2022-07-29T23:57:16.759Z,0
2022-07-29T23:59:17.804Z,0
